createdAt,value
2022-10-13T00:01:31.265Z,88.34
2022-10-13T00:03:59.363Z,88.22
2022-10-13T00:06:28.452Z,88.23
2022-10-13T00:08:59.678Z,88.49
2022-10-13T00:11:30.287Z,88.38
2022-10-13T00:14:01.739Z,88.35
2022-10-13T00:16:32.291Z,88.63
2022-10-13T00:19:00.697Z,88.58
2022-10-13T00:21:29.291Z,88.61
2022-10-13T00:23:57.722Z,88.92
2022-10-13T00:26:27.105Z,89.04
2022-10-13T00:28:56.607Z,88.90
2022-10-13T00:31:31.760Z,88.97
2022-10-13T00:34:01.575Z,89.04
2022-10-13T00:36:30.239Z,88.95
2022-10-13T00:38:59.152Z,88.98
2022-10-13T00:41:27.234Z,89.19
2022-10-13T00:44:04.701Z,89.02
2022-10-13T00:46:37.279Z,89.19
2022-10-13T00:49:09.985Z,89.37
2022-10-13T00:51:45.106Z,89.60
2022-10-13T00:54:18.168Z,89.80
2022-10-13T00:56:47.320Z,89.88
2022-10-13T00:59:23.365Z,90.00
2022-10-13T01:01:56.221Z,89.94
2022-10-13T01:04:28.148Z,90.03
2022-10-13T01:06:57.080Z,89.75
2022-10-13T01:09:25.236Z,89.80
2022-10-13T01:12:02.547Z,90.32
2022-10-13T01:14:42.734Z,91.14
2022-10-13T01:17:33.758Z,91.13
2022-10-13T01:20:13.694Z,90.73
2022-10-13T01:23:00.506Z,90.77
2022-10-13T01:26:22.465Z,92.11
2022-10-13T01:28:50.594Z,93.95
2022-10-13T01:31:58.866Z,94.41
2022-10-13T01:34:37.223Z,94.51
2022-10-13T01:37:22.482Z,94.58
2022-10-13T01:40:21.762Z,95.13
2022-10-13T01:42:58.979Z,95.08
2022-10-13T01:45:35.905Z,95.26
2022-10-13T01:48:06.087Z,95.50
2022-10-13T01:50:40.150Z,95.26
2022-10-13T01:53:10.162Z,95.31
2022-10-13T01:55:49.542Z,95.36
2022-10-13T01:58:17.687Z,95.66
2022-10-13T02:01:00.402Z,95.64
2022-10-13T02:03:44.190Z,95.19
2022-10-13T02:06:18.123Z,94.75
2022-10-13T02:08:58.416Z,94.52
2022-10-13T02:11:28.133Z,94.57
2022-10-13T02:14:08.338Z,94.35
2022-10-13T02:16:41.343Z,93.81
2022-10-13T02:19:13.348Z,93.65
2022-10-13T02:21:42.560Z,93.59
2022-10-13T02:24:10.964Z,93.86
2022-10-13T02:26:39.639Z,93.92
2022-10-13T02:29:10.715Z,93.94
2022-10-13T02:31:40.416Z,93.77
2022-10-13T02:34:08.968Z,93.78
2022-10-13T02:36:40.049Z,93.89
2022-10-13T02:39:10.419Z,93.89
2022-10-13T02:41:39.026Z,93.75
2022-10-13T02:44:07.775Z,93.86
2022-10-13T02:46:37.046Z,94.11
2022-10-13T02:49:05.037Z,94.17
2022-10-13T02:51:37.529Z,94.01
2022-10-13T02:54:08.130Z,93.86
2022-10-13T02:56:36.159Z,93.44
2022-10-13T02:59:04.435Z,93.45
2022-10-13T03:01:33.233Z,92.85
2022-10-13T03:04:01.450Z,92.68
2022-10-13T03:06:29.671Z,92.35
2022-10-13T03:08:57.728Z,91.98
2022-10-13T03:11:26.228Z,91.55
2022-10-13T03:13:54.408Z,91.61
2022-10-13T03:16:22.875Z,91.48
2022-10-13T03:18:50.881Z,91.45
2022-10-13T03:21:18.957Z,91.48
2022-10-13T03:23:47.189Z,91.42
2022-10-13T03:26:15.905Z,91.28
2022-10-13T03:28:44.053Z,90.90
2022-10-13T03:31:12.947Z,90.53
2022-10-13T03:33:41.510Z,90.00
2022-10-13T03:36:11.673Z,89.99
2022-10-13T03:38:41.125Z,90.04
2022-10-13T03:41:15.078Z,89.89
2022-10-13T03:43:45.302Z,89.86
2022-10-13T03:46:16.870Z,89.91
2022-10-13T03:48:47.683Z,90.15
2022-10-13T03:51:20.849Z,90.10
2022-10-13T03:53:52.146Z,90.28
2022-10-13T03:56:23.249Z,90.58
2022-10-13T03:58:59.996Z,90.54
2022-10-13T04:01:30.277Z,90.71
2022-10-13T04:04:00.242Z,90.74
2022-10-13T04:06:29.323Z,90.82
2022-10-13T04:08:58.474Z,91.36
2022-10-13T04:11:26.885Z,91.77
2022-10-13T04:13:58.446Z,91.75
2022-10-13T04:16:29.801Z,92.06
2022-10-13T04:19:07.659Z,92.18
2022-10-13T04:21:35.842Z,92.07
2022-10-13T04:24:05.769Z,91.86
2022-10-13T04:26:36.288Z,92.33
2022-10-13T04:29:11.934Z,92.28
2022-10-13T04:31:45.117Z,92.38
2022-10-13T04:34:13.421Z,92.41
2022-10-13T04:36:41.616Z,92.53
2022-10-13T04:39:09.593Z,92.20
2022-10-13T04:41:37.746Z,91.99
2022-10-13T04:44:05.905Z,92.31
2022-10-13T04:46:34.623Z,92.48
2022-10-13T04:49:02.750Z,92.59
2022-10-13T04:51:38.304Z,92.16
2022-10-13T04:54:13.837Z,92.26
2022-10-13T04:56:45.934Z,92.28
2022-10-13T04:59:15.867Z,92.37
2022-10-13T05:01:44.729Z,92.20
2022-10-13T05:04:30.389Z,92.37
2022-10-13T05:07:18.629Z,92.29
2022-10-13T05:09:48.152Z,92.08
2022-10-13T05:12:31.284Z,91.48
2022-10-13T05:15:02.373Z,92.01
2022-10-13T05:17:36.088Z,92.47
2022-10-13T05:20:12.981Z,92.93
2022-10-13T05:22:45.133Z,92.72
2022-10-13T05:25:23.392Z,92.63
2022-10-13T05:27:58.759Z,92.73
2022-10-13T05:30:44.665Z,92.49
2022-10-13T05:33:26.802Z,91.73
2022-10-13T05:36:22.474Z,91.63
2022-10-13T05:39:09.105Z,92.30
2022-10-13T05:42:25.517Z,92.50
2022-10-13T05:53:38.344Z,89.98
2022-10-13T05:56:28.675Z,87.86
2022-10-13T05:59:10.738Z,88.44
2022-10-13T06:01:48.833Z,88.30
2022-10-13T07:45:03.419Z,70.52
2022-10-13T07:47:39.179Z,71.08
2022-10-13T07:50:14.430Z,71.72
2022-10-13T07:52:46.904Z,71.17
2022-10-13T07:55:31.292Z,71.09
2022-10-13T07:58:08.740Z,70.79
2022-10-13T08:00:45.257Z,71.16
2022-10-13T08:03:22.471Z,70.71
2022-10-13T08:05:59.855Z,68.45
2022-10-13T08:08:41.046Z,66.48
2022-10-13T08:11:27.136Z,63.85
2022-10-13T08:14:06.971Z,62.12
2022-10-13T08:16:55.233Z,60.45
2022-10-13T08:38:07.779Z,49.37
2022-10-13T08:40:41.578Z,49.60
2022-10-13T08:43:23.532Z,50.69
2022-10-13T08:46:01.811Z,51.57
2022-10-13T08:48:39.365Z,50.83
2022-10-13T08:51:17.209Z,49.41
2022-10-13T08:53:50.155Z,48.65
2022-10-13T08:56:35.506Z,50.09
2022-10-13T08:59:14.948Z,50.24
2022-10-13T09:01:54.920Z,50.27
2022-10-13T09:04:43.356Z,52.01
2022-10-13T09:07:20.574Z,52.47
2022-10-13T09:09:56.805Z,53.48
2022-10-13T09:12:38.193Z,53.86
2022-10-13T09:15:14.759Z,55.24
2022-10-13T09:17:45.465Z,55.98
2022-10-13T09:20:25.522Z,56.61
2022-10-13T09:23:29.257Z,57.30
2022-10-13T09:26:10.464Z,57.86
2022-10-13T09:28:55.611Z,58.80
2022-10-13T09:31:33.324Z,59.92
2022-10-13T09:34:10.616Z,60.04
2022-10-13T09:36:42.077Z,60.52
2022-10-13T09:39:18.586Z,60.89
2022-10-13T09:41:54.606Z,61.69
2022-10-13T09:44:35.443Z,61.70
2022-10-13T09:47:05.457Z,61.12
2022-10-13T09:49:43.142Z,59.93
2022-10-13T09:52:15.234Z,59.95
2022-10-13T09:54:47.111Z,59.44
2022-10-13T09:57:42.915Z,60.10
2022-10-13T10:00:15.756Z,59.69
2022-10-13T10:03:03.840Z,60.39
2022-10-13T10:05:56.504Z,60.56
2022-10-13T10:09:04.118Z,60.19
2022-10-13T10:11:50.429Z,60.37
2022-10-13T10:14:37.287Z,60.03
2022-10-13T10:17:22.219Z,58.11
2022-10-13T10:19:59.839Z,57.88
2022-10-13T10:23:00.377Z,57.32
2022-10-13T10:25:59.888Z,55.36
2022-10-13T10:28:49.447Z,52.25
2022-10-13T10:31:52.620Z,47.95
2022-10-13T10:34:52.137Z,46.64
2022-10-13T10:37:35.653Z,44.67
2022-10-13T10:44:57.313Z,45.86
2022-10-13T10:47:35.837Z,46.41
2022-10-13T10:50:07.522Z,46.72
2022-10-13T10:52:49.086Z,45.97
2022-10-13T10:55:36.527Z,47.45
2022-10-13T10:58:37.307Z,48.97
2022-10-13T11:01:20.203Z,50.23
2022-10-13T11:04:18.635Z,51.75
2022-10-13T11:06:48.334Z,51.07
2022-10-13T11:09:46.346Z,50.56
2022-10-13T11:12:21.088Z,50.36
2022-10-13T11:15:10.848Z,48.90
2022-10-13T11:17:41.261Z,49.16
2022-10-13T11:20:20.115Z,49.94
2022-10-13T11:23:01.120Z,49.14
2022-10-13T11:25:40.708Z,50.57
2022-10-13T11:28:42.813Z,51.63
2022-10-13T11:31:13.144Z,51.66
2022-10-13T11:33:44.207Z,51.41
2022-10-13T11:36:59.379Z,52.66
2022-10-13T11:40:05.377Z,53.38
2022-10-13T11:43:04.994Z,53.43
2022-10-13T11:46:02.918Z,52.44
2022-10-13T11:48:49.779Z,54.13
2022-10-13T11:51:37.258Z,54.93
2022-10-13T11:54:39.882Z,55.10
2022-10-13T11:57:23.712Z,55.13
2022-10-13T11:59:55.911Z,55.18
2022-10-13T12:02:31.059Z,56.21
2022-10-13T12:05:24.491Z,57.02
2022-10-13T12:07:55.718Z,57.87
2022-10-13T12:10:28.949Z,57.99
2022-10-13T12:12:59.322Z,58.27
2022-10-13T12:15:44.627Z,58.43
2022-10-13T12:18:46.099Z,58.14
2022-10-13T12:21:20.010Z,58.03
2022-10-13T12:23:51.501Z,58.37
2022-10-13T12:26:23.184Z,58.97
2022-10-13T12:29:01.318Z,59.53
2022-10-13T12:31:44.854Z,59.76
2022-10-13T12:34:27.840Z,59.49
2022-10-13T12:37:00.837Z,60.31
2022-10-13T12:39:32.421Z,60.80
2022-10-13T12:42:03.499Z,61.36
2022-10-13T12:44:32.977Z,60.79
2022-10-13T12:47:03.997Z,60.91
2022-10-13T12:49:35.445Z,60.99
2022-10-13T12:52:04.024Z,60.56
2022-10-13T12:54:35.167Z,59.98
2022-10-13T12:57:16.007Z,60.04
2022-10-13T12:59:45.963Z,59.76
2022-10-13T13:02:33.520Z,59.16
2022-10-13T13:05:03.056Z,59.84
2022-10-13T13:07:34.302Z,60.12
2022-10-13T13:10:17.061Z,60.07
2022-10-13T13:12:47.214Z,60.80
2022-10-13T13:15:37.917Z,61.39
2022-10-13T13:18:39.801Z,60.00
2022-10-13T13:21:12.591Z,58.90
2022-10-13T13:23:51.031Z,60.05
2022-10-13T13:26:24.263Z,61.86
2022-10-13T13:28:56.514Z,63.15
2022-10-13T13:31:26.513Z,63.48
2022-10-13T13:33:55.119Z,64.54
2022-10-13T13:36:26.100Z,66.15
2022-10-13T13:38:55.217Z,67.43
2022-10-13T13:41:27.862Z,68.24
2022-10-13T13:43:57.585Z,69.02
2022-10-13T13:46:32.382Z,69.23
2022-10-13T13:49:02.936Z,69.67
2022-10-13T13:51:31.807Z,70.10
2022-10-13T13:54:02.469Z,70.49
2022-10-13T13:56:30.860Z,68.04
2022-10-13T13:59:00.256Z,66.95
2022-10-13T14:01:28.421Z,67.39
2022-10-13T14:03:56.879Z,67.70
2022-10-13T14:06:25.315Z,68.79
2022-10-13T14:08:53.425Z,69.13
2022-10-13T14:11:21.679Z,69.45
2022-10-13T14:13:49.996Z,69.62
2022-10-13T14:16:25.653Z,70.28
2022-10-13T14:18:56.146Z,70.15
2022-10-13T14:21:26.869Z,69.30
2022-10-13T14:23:58.412Z,69.83
2022-10-13T14:26:26.455Z,70.46
2022-10-13T14:28:54.573Z,70.73
2022-10-13T14:31:22.692Z,70.95
2022-10-13T14:33:54.133Z,71.31
2022-10-13T14:36:25.592Z,71.40
2022-10-13T14:38:55.060Z,71.51
2022-10-13T14:41:23.294Z,71.47
2022-10-13T14:43:56.202Z,71.64
2022-10-13T14:46:25.111Z,71.01
2022-10-13T14:48:53.280Z,70.64
2022-10-13T14:51:21.427Z,70.93
2022-10-13T14:53:49.445Z,71.63
2022-10-13T14:56:19.583Z,71.81
2022-10-13T14:58:53.639Z,72.64
2022-10-13T15:01:22.151Z,72.78
2022-10-13T15:03:51.166Z,73.16
2022-10-13T15:06:22.150Z,72.99
2022-10-13T15:08:50.664Z,72.80
2022-10-13T15:11:20.458Z,72.68
2022-10-13T15:13:48.759Z,73.03
2022-10-13T15:16:22.659Z,73.22
2022-10-13T15:18:51.346Z,73.50
2022-10-13T15:21:19.638Z,73.56
2022-10-13T15:23:47.747Z,73.85
2022-10-13T15:26:18.115Z,74.09
2022-10-13T15:28:48.653Z,74.04
2022-10-13T15:31:18.752Z,74.31
2022-10-13T15:33:53.004Z,74.83
2022-10-13T15:36:23.343Z,75.00
2022-10-13T15:38:52.582Z,75.32
2022-10-13T15:41:23.099Z,75.64
2022-10-13T15:43:51.407Z,76.05
2022-10-13T15:46:24.405Z,77.49
2022-10-13T15:48:54.384Z,77.33
2022-10-13T15:51:27.021Z,77.83
2022-10-13T15:53:55.393Z,77.61
2022-10-13T15:56:23.647Z,77.37
2022-10-13T15:58:51.737Z,77.63
2022-10-13T16:01:19.950Z,77.69
2022-10-13T16:03:48.404Z,77.98
2022-10-13T16:06:16.487Z,78.39
2022-10-13T16:08:44.798Z,78.40
2022-10-13T16:11:20.143Z,78.76
2022-10-13T16:13:50.526Z,78.81
2022-10-13T16:16:19.578Z,78.85
2022-10-13T16:18:48.219Z,78.61
2022-10-13T16:21:26.012Z,78.39
2022-10-13T16:23:54.360Z,78.98
2022-10-13T16:26:23.960Z,78.86
2022-10-13T16:28:56.014Z,78.88
2022-10-13T16:31:25.092Z,78.98
2022-10-13T16:33:53.145Z,80.55
2022-10-13T16:36:21.432Z,81.60
2022-10-13T16:38:55.020Z,82.21
2022-10-13T16:41:24.059Z,82.60
2022-10-13T16:43:52.172Z,83.76
2022-10-13T16:46:20.754Z,84.30
2022-10-13T16:48:48.928Z,83.66
2022-10-13T16:51:23.100Z,83.11
2022-10-13T16:54:01.334Z,83.61
2022-10-13T16:56:32.355Z,83.46
2022-10-13T16:59:04.867Z,84.01
2022-10-13T17:01:36.537Z,84.61
2022-10-13T17:04:04.984Z,85.52
2022-10-13T17:06:33.268Z,86.03
2022-10-13T17:09:03.432Z,86.16
2022-10-13T17:11:33.939Z,86.56
2022-10-13T17:14:05.835Z,86.58
2022-10-13T17:16:34.104Z,86.27
2022-10-13T17:19:03.254Z,86.44
2022-10-13T17:21:37.065Z,87.17
2022-10-13T17:24:06.982Z,87.95
2022-10-13T17:26:36.926Z,87.64
2022-10-13T17:29:05.499Z,87.17
2022-10-13T17:31:33.811Z,86.64
2022-10-13T17:34:02.252Z,86.63
2022-10-13T17:36:34.569Z,87.60
2022-10-13T17:39:11.477Z,89.08
2022-10-13T17:41:43.412Z,89.04
2022-10-13T17:44:11.834Z,89.18
2022-10-13T17:46:40.106Z,88.95
2022-10-13T17:49:11.789Z,88.99
2022-10-13T17:51:41.493Z,88.69
2022-10-13T17:54:15.652Z,88.18
2022-10-13T17:56:48.522Z,87.50
2022-10-13T17:59:18.447Z,87.18
2022-10-13T18:01:47.089Z,87.04
2022-10-13T18:04:18.322Z,86.60
2022-10-13T18:06:46.573Z,86.21
2022-10-13T18:09:20.556Z,86.08
2022-10-13T18:11:51.067Z,86.04
2022-10-13T18:14:21.954Z,85.75
2022-10-13T18:16:51.733Z,85.58
2022-10-13T18:19:21.485Z,85.26
2022-10-13T18:21:50.331Z,85.49
2022-10-13T18:24:18.759Z,85.32
2022-10-13T18:26:46.988Z,84.94
2022-10-13T18:29:15.291Z,84.56
2022-10-13T18:31:43.837Z,84.92
2022-10-13T18:34:17.166Z,86.24
2022-10-13T18:36:47.681Z,86.23
2022-10-13T18:39:20.707Z,86.25
2022-10-13T18:41:50.657Z,86.34
2022-10-13T18:44:19.603Z,86.20
2022-10-13T18:46:52.491Z,85.92
2022-10-13T18:49:31.119Z,85.59
2022-10-13T18:52:01.411Z,85.41
2022-10-13T18:54:30.524Z,85.46
2022-10-13T18:56:58.772Z,85.30
2022-10-13T18:59:26.975Z,85.33
2022-10-13T19:01:55.047Z,85.04
2022-10-13T19:04:26.352Z,85.02
2022-10-13T19:06:55.578Z,85.16
2022-10-13T19:09:24.993Z,85.65
2022-10-13T19:11:56.610Z,85.68
2022-10-13T19:14:25.953Z,85.81
2022-10-13T19:16:58.179Z,86.07
2022-10-13T19:19:29.649Z,85.92
2022-10-13T19:21:58.990Z,85.78
2022-10-13T19:24:27.311Z,85.92
2022-10-13T19:26:56.229Z,85.79
2022-10-13T19:29:24.407Z,85.90
2022-10-13T19:31:52.584Z,86.37
2022-10-13T19:34:20.841Z,86.51
2022-10-13T19:36:48.957Z,86.48
2022-10-13T19:39:20.841Z,86.59
2022-10-13T19:41:51.005Z,86.64
2022-10-13T19:44:20.724Z,87.23
2022-10-13T19:46:49.958Z,87.24
2022-10-13T19:49:21.243Z,86.96
2022-10-13T19:51:50.309Z,86.79
2022-10-13T19:54:19.826Z,86.81
2022-10-13T19:56:49.788Z,86.66
2022-10-13T19:59:18.888Z,86.66
2022-10-13T20:01:47.836Z,87.30
2022-10-13T20:04:18.700Z,87.50
2022-10-13T20:06:48.398Z,87.64
2022-10-13T20:09:18.005Z,87.05
2022-10-13T20:11:50.693Z,86.79
2022-10-13T20:14:19.713Z,86.41
2022-10-13T20:16:48.941Z,86.21
2022-10-13T20:19:19.948Z,86.48
2022-10-13T20:21:51.868Z,86.81
2022-10-13T20:24:21.801Z,86.40
2022-10-13T20:26:50.399Z,86.44
2022-10-13T20:29:22.457Z,86.38
2022-10-13T20:31:50.623Z,86.24
2022-10-13T20:34:18.639Z,86.28
2022-10-13T20:36:46.830Z,86.18
2022-10-13T20:39:15.413Z,86.40
2022-10-13T20:41:43.878Z,86.53
2022-10-13T20:44:12.637Z,86.79
2022-10-13T20:46:40.707Z,86.72
2022-10-13T20:49:11.793Z,86.93
2022-10-13T20:51:41.967Z,87.44
2022-10-13T20:54:12.342Z,87.56
2022-10-13T20:56:41.061Z,87.90
2022-10-13T20:59:12.885Z,88.23
2022-10-13T21:01:41.302Z,88.30
2022-10-13T21:04:11.317Z,88.45
2022-10-13T21:06:41.185Z,88.38
2022-10-13T21:09:10.101Z,88.39
2022-10-13T21:11:39.783Z,87.73
2022-10-13T21:14:09.821Z,88.10
2022-10-13T21:16:40.539Z,88.54
2022-10-13T21:19:12.696Z,88.73
2022-10-13T21:21:40.937Z,88.79
2022-10-13T21:24:10.394Z,88.33
2022-10-13T21:26:41.080Z,88.13
2022-10-13T21:29:15.500Z,88.27
2022-10-13T21:31:43.711Z,88.20
2022-10-13T21:34:12.840Z,88.57
2022-10-13T21:36:44.556Z,88.61
2022-10-13T21:39:14.832Z,88.94
2022-10-13T21:41:43.378Z,89.52
2022-10-13T21:44:14.020Z,89.94
2022-10-13T21:46:42.498Z,89.68
2022-10-13T21:49:10.784Z,89.91
2022-10-13T21:51:39.999Z,90.50
2022-10-13T21:54:11.237Z,90.82
2022-10-13T21:56:40.597Z,90.40
2022-10-13T21:59:10.190Z,90.19
2022-10-13T22:01:38.274Z,90.37
2022-10-13T22:04:13.712Z,89.98
2022-10-13T22:06:42.370Z,89.73
2022-10-13T22:09:10.994Z,89.24
2022-10-13T22:11:39.769Z,88.80
2022-10-13T22:14:13.869Z,88.30
2022-10-13T22:16:45.704Z,87.90
2022-10-13T22:19:16.036Z,87.60
2022-10-13T22:21:47.134Z,87.65
2022-10-13T22:24:18.372Z,87.81
2022-10-13T22:26:49.336Z,88.21
2022-10-13T22:29:21.532Z,88.41
2022-10-13T22:31:51.057Z,88.37
2022-10-13T22:34:19.029Z,88.52
2022-10-13T22:36:47.075Z,88.53
2022-10-13T22:39:15.596Z,88.23
2022-10-13T22:41:44.333Z,88.23
2022-10-13T22:44:13.604Z,88.23
2022-10-13T22:46:42.170Z,88.22
2022-10-13T22:49:14.753Z,88.14
2022-10-13T22:51:42.777Z,88.39
2022-10-13T22:54:10.875Z,87.12
2022-10-13T22:56:41.178Z,86.73
2022-10-13T22:59:11.646Z,86.31
2022-10-13T23:01:39.885Z,86.13
2022-10-13T23:04:08.499Z,86.21
2022-10-13T23:06:36.603Z,85.88
2022-10-13T23:09:10.520Z,86.06
2022-10-13T23:11:39.258Z,86.66
2022-10-13T23:14:09.707Z,87.23
2022-10-13T23:16:38.344Z,88.55
2022-10-13T23:19:06.600Z,88.71
2022-10-13T23:21:34.744Z,88.46
2022-10-13T23:24:06.144Z,88.48
2022-10-13T23:26:34.913Z,88.36
2022-10-13T23:29:04.888Z,87.62
2022-10-13T23:31:33.557Z,87.54
2022-10-13T23:34:02.111Z,88.70
2022-10-13T23:36:32.777Z,88.77
2022-10-13T23:39:05.360Z,89.09
2022-10-13T23:41:37.444Z,88.44
2022-10-13T23:44:05.702Z,88.46
2022-10-13T23:46:34.029Z,88.35
2022-10-13T23:49:02.277Z,87.94
2022-10-13T23:51:31.038Z,88.69
2022-10-13T23:53:59.228Z,89.53
2022-10-13T23:56:27.719Z,89.92
2022-10-13T23:58:55.706Z,89.62
